sensor_id;sensor_type;location;lat;lon;timestamp;P1;durP1;ratioP1;P2;durP2;ratioP2
24743;SDS011;12844;52.110;5.548;2024-03-02T01:27:50;1.48;;;0.70;;
24743;SDS011;12844;52.110;5.548;2024-03-02T01:30:16;1.15;;;0.77;;
24743;SDS011;12844;52.110;5.548;2024-03-02T01:32:42;0.85;;;0.50;;
24743;SDS011;12844;52.110;5.548;2024-03-02T01:35:08;0.75;;;0.50;;
24743;SDS011;12844;52.110;5.548;2024-03-02T01:37:34;1.15;;;0.77;;
24743;SDS011;12844;52.110;5.548;2024-03-02T01:39:59;1.77;;;0.77;;
24743;SDS011;12844;52.110;5.548;2024-03-02T01:45:54;0.60;;;0.50;;
24743;SDS011;12844;52.110;5.548;2024-03-02T01:48:56;0.63;;;0.38;;
24743;SDS011;12844;52.110;5.548;2024-03-02T01:51:44;1.58;;;0.60;;
24743;SDS011;12844;52.110;5.548;2024-03-02T01:54:10;1.08;;;0.60;;
24743;SDS011;12844;52.110;5.548;2024-03-02T01:56:35;1.63;;;0.60;;
24743;SDS011;12844;52.110;5.548;2024-03-02T01:59:22;0.63;;;0.45;;
24743;SDS011;12844;52.110;5.548;2024-03-02T02:01:49;0.80;;;0.50;;
24743;SDS011;12844;52.110;5.548;2024-03-02T02:04:24;0.65;;;0.52;;
24743;SDS011;12844;52.110;5.548;2024-03-02T02:06:53;0.95;;;0.55;;
24743;SDS011;12844;52.110;5.548;2024-03-02T02:09:25;0.93;;;0.50;;
24743;SDS011;12844;52.110;5.548;2024-03-02T02:12:16;0.40;;;0.40;;
24743;SDS011;12844;52.110;5.548;2024-03-02T02:14:49;1.10;;;0.60;;
24743;SDS011;12844;52.110;5.548;2024-03-02T02:17:15;0.98;;;0.50;;
24743;SDS011;12844;52.110;5.548;2024-03-02T02:19:41;0.80;;;0.38;;
24743;SDS011;12844;52.110;5.548;2024-03-02T02:22:08;0.40;;;0.40;;
24743;SDS011;12844;52.110;5.548;2024-03-02T02:24:34;0.50;;;0.38;;
24743;SDS011;12844;52.110;5.548;2024-03-02T02:27:00;0.50;;;0.40;;
24743;SDS011;12844;52.110;5.548;2024-03-02T02:29:25;0.60;;;0.40;;
24743;SDS011;12844;52.110;5.548;2024-03-02T02:31:51;0.80;;;0.52;;
24743;SDS011;12844;52.110;5.548;2024-03-02T02:34:16;0.43;;;0.30;;
24743;SDS011;12844;52.110;5.548;2024-03-02T02:36:42;0.68;;;0.43;;
24743;SDS011;12844;52.110;5.548;2024-03-02T02:39:09;0.68;;;0.50;;
24743;SDS011;12844;52.110;5.548;2024-03-02T02:41:38;0.68;;;0.55;;
24743;SDS011;12844;52.110;5.548;2024-03-02T02:44:04;0.47;;;0.40;;
24743;SDS011;12844;52.110;5.548;2024-03-02T02:46:30;1.00;;;0.43;;
24743;SDS011;12844;52.110;5.548;2024-03-02T02:48:56;1.70;;;0.40;;
24743;SDS011;12844;52.110;5.548;2024-03-02T02:51:21;0.40;;;0.40;;
24743;SDS011;12844;52.110;5.548;2024-03-02T02:53:47;0.88;;;0.50;;
24743;SDS011;12844;52.110;5.548;2024-03-02T02:56:14;1.52;;;0.47;;
24743;SDS011;12844;52.110;5.548;2024-03-02T02:58:40;1.20;;;0.32;;
24743;SDS011;12844;52.110;5.548;2024-03-02T03:01:06;0.45;;;0.40;;
24743;SDS011;12844;52.110;5.548;2024-03-02T03:03:32;0.93;;;0.40;;
24743;SDS011;12844;52.110;5.548;2024-03-02T03:05:58;0.55;;;0.30;;
24743;SDS011;12844;52.110;5.548;2024-03-02T03:08:24;0.45;;;0.30;;
24743;SDS011;12844;52.110;5.548;2024-03-02T03:10:49;0.40;;;0.30;;
24743;SDS011;12844;52.110;5.548;2024-03-02T03:13:15;0.40;;;0.30;;
24743;SDS011;12844;52.110;5.548;2024-03-02T03:15:41;0.77;;;0.20;;
24743;SDS011;12844;52.110;5.548;2024-03-02T03:18:06;0.75;;;0.40;;
24743;SDS011;12844;52.110;5.548;2024-03-02T03:20:35;0.52;;;0.30;;
24743;SDS011;12844;52.110;5.548;2024-03-02T03:23:01;0.60;;;0.32;;
24743;SDS011;12844;52.110;5.548;2024-03-02T03:25:28;0.38;;;0.30;;
24743;SDS011;12844;52.110;5.548;2024-03-02T03:27:54;0.40;;;0.40;;
24743;SDS011;12844;52.110;5.548;2024-03-02T03:30:20;0.40;;;0.30;;
24743;SDS011;12844;52.110;5.548;2024-03-02T03:32:46;0.75;;;0.40;;
24743;SDS011;12844;52.110;5.548;2024-03-02T03:35:13;0.30;;;0.30;;
24743;SDS011;12844;52.110;5.548;2024-03-02T03:37:40;0.50;;;0.40;;
24743;SDS011;12844;52.110;5.548;2024-03-02T03:40:07;0.20;;;0.20;;
24743;SDS011;12844;52.110;5.548;2024-03-02T03:42:39;0.50;;;0.32;;
24743;SDS011;12844;52.110;5.548;2024-03-02T03:45:05;1.23;;;0.50;;
24743;SDS011;12844;52.110;5.548;2024-03-02T03:47:31;0.43;;;0.38;;
24743;SDS011;12844;52.110;5.548;2024-03-02T03:49:57;0.52;;;0.40;;
24743;SDS011;12844;52.110;5.548;2024-03-02T03:52:23;0.73;;;0.43;;
24743;SDS011;12844;52.110;5.548;2024-03-02T03:54:49;0.45;;;0.40;;
24743;SDS011;12844;52.110;5.548;2024-03-02T03:57:15;1.80;;;0.30;;
24743;SDS011;12844;52.110;5.548;2024-03-02T03:59:41;0.40;;;0.30;;
24743;SDS011;12844;52.110;5.548;2024-03-02T04:02:07;0.50;;;0.30;;
24743;SDS011;12844;52.110;5.548;2024-03-02T04:04:33;0.60;;;0.40;;
24743;SDS011;12844;52.110;5.548;2024-03-02T04:06:59;1.48;;;0.30;;
24743;SDS011;12844;52.110;5.548;2024-03-02T04:09:24;0.60;;;0.40;;
24743;SDS011;12844;52.110;5.548;2024-03-02T04:11:50;0.55;;;0.35;;
24743;SDS011;12844;52.110;5.548;2024-03-02T04:14:16;0.73;;;0.32;;
24743;SDS011;12844;52.110;5.548;2024-03-02T04:16:42;0.65;;;0.30;;
24743;SDS011;12844;52.110;5.548;2024-03-02T04:19:08;2.20;;;0.40;;
24743;SDS011;12844;52.110;5.548;2024-03-02T04:21:34;0.82;;;0.30;;
24743;SDS011;12844;52.110;5.548;2024-03-02T04:24:00;0.55;;;0.28;;
24743;SDS011;12844;52.110;5.548;2024-03-02T04:26:26;0.30;;;0.30;;
24743;SDS011;12844;52.110;5.548;2024-03-02T04:28:52;0.30;;;0.30;;
24743;SDS011;12844;52.110;5.548;2024-03-02T04:31:19;1.27;;;0.30;;
24743;SDS011;12844;52.110;5.548;2024-03-02T04:33:45;0.77;;;0.30;;
24743;SDS011;12844;52.110;5.548;2024-03-02T04:36:11;0.60;;;0.40;;
24743;SDS011;12844;52.110;5.548;2024-03-02T04:38:37;1.30;;;0.20;;
24743;SDS011;12844;52.110;5.548;2024-03-02T04:41:04;0.50;;;0.40;;
24743;SDS011;12844;52.110;5.548;2024-03-02T04:43:33;0.20;;;0.20;;
24743;SDS011;12844;52.110;5.548;2024-03-02T04:45:59;0.20;;;0.20;;
24743;SDS011;12844;52.110;5.548;2024-03-02T04:48:25;1.25;;;0.50;;
24743;SDS011;12844;52.110;5.548;2024-03-02T04:50:51;0.50;;;0.30;;
24743;SDS011;12844;52.110;5.548;2024-03-02T04:53:17;0.38;;;0.30;;
24743;SDS011;12844;52.110;5.548;2024-03-02T04:55:42;0.60;;;0.30;;
24743;SDS011;12844;52.110;5.548;2024-03-02T04:58:08;0.30;;;0.20;;
24743;SDS011;12844;52.110;5.548;2024-03-02T05:00:37;1.25;;;0.30;;
24743;SDS011;12844;52.110;5.548;2024-03-02T05:03:09;0.20;;;0.20;;
24743;SDS011;12844;52.110;5.548;2024-03-02T05:05:37;0.38;;;0.20;;
24743;SDS011;12844;52.110;5.548;2024-03-02T05:08:03;0.63;;;0.30;;
24743;SDS011;12844;52.110;5.548;2024-03-02T05:10:29;1.38;;;0.40;;
24743;SDS011;12844;52.110;5.548;2024-03-02T05:12:58;0.35;;;0.30;;
24743;SDS011;12844;52.110;5.548;2024-03-02T05:15:24;0.30;;;0.20;;
24743;SDS011;12844;52.110;5.548;2024-03-02T05:17:50;0.65;;;0.38;;
24743;SDS011;12844;52.110;5.548;2024-03-02T05:20:16;0.60;;;0.35;;
24743;SDS011;12844;52.110;5.548;2024-03-02T05:22:42;0.47;;;0.20;;
24743;SDS011;12844;52.110;5.548;2024-03-02T05:25:08;0.38;;;0.35;;
24743;SDS011;12844;52.110;5.548;2024-03-02T05:27:36;0.30;;;0.20;;
24743;SDS011;12844;52.110;5.548;2024-03-02T05:30:02;0.70;;;0.30;;
24743;SDS011;12844;52.110;5.548;2024-03-02T05:32:31;0.38;;;0.20;;
24743;SDS011;12844;52.110;5.548;2024-03-02T05:34:57;0.55;;;0.20;;
24743;SDS011;12844;52.110;5.548;2024-03-02T05:37:22;0.43;;;0.20;;
24743;SDS011;12844;52.110;5.548;2024-03-02T05:39:48;0.20;;;0.20;;
24743;SDS011;12844;52.110;5.548;2024-03-02T05:42:13;0.30;;;0.10;;
24743;SDS011;12844;52.110;5.548;2024-03-02T05:44:39;0.45;;;0.30;;
24743;SDS011;12844;52.110;5.548;2024-03-02T05:47:06;0.32;;;0.22;;
24743;SDS011;12844;52.110;5.548;2024-03-02T05:49:35;1.02;;;0.30;;
24743;SDS011;12844;52.110;5.548;2024-03-02T05:52:01;0.45;;;0.30;;
24743;SDS011;12844;52.110;5.548;2024-03-02T05:54:26;0.20;;;0.20;;
24743;SDS011;12844;52.110;5.548;2024-03-02T05:56:53;0.30;;;0.20;;
24743;SDS011;12844;52.110;5.548;2024-03-02T05:59:21;1.30;;;0.35;;
24743;SDS011;12844;52.110;5.548;2024-03-02T06:01:46;0.50;;;0.20;;
24743;SDS011;12844;52.110;5.548;2024-03-02T06:04:15;0.75;;;0.30;;
24743;SDS011;12844;52.110;5.548;2024-03-02T06:06:41;0.55;;;0.20;;
24743;SDS011;12844;52.110;5.548;2024-03-02T06:09:07;0.70;;;0.30;;
24743;SDS011;12844;52.110;5.548;2024-03-02T06:11:36;0.20;;;0.20;;
24743;SDS011;12844;52.110;5.548;2024-03-02T06:14:02;0.50;;;0.10;;
24743;SDS011;12844;52.110;5.548;2024-03-02T06:16:28;0.20;;;0.20;;
24743;SDS011;12844;52.110;5.548;2024-03-02T06:18:57;1.00;;;0.20;;
24743;SDS011;12844;52.110;5.548;2024-03-02T06:21:26;0.85;;;0.20;;
24743;SDS011;12844;52.110;5.548;2024-03-02T06:23:54;0.20;;;0.20;;
24743;SDS011;12844;52.110;5.548;2024-03-02T06:26:20;0.20;;;0.13;;
24743;SDS011;12844;52.110;5.548;2024-03-02T06:28:46;0.65;;;0.20;;
24743;SDS011;12844;52.110;5.548;2024-03-02T06:31:12;0.32;;;0.20;;
24743;SDS011;12844;52.110;5.548;2024-03-02T06:33:37;0.20;;;0.20;;
24743;SDS011;12844;52.110;5.548;2024-03-02T06:36:03;1.35;;;0.30;;
24743;SDS011;12844;52.110;5.548;2024-03-02T06:38:29;0.50;;;0.20;;
24743;SDS011;12844;52.110;5.548;2024-03-02T06:40:57;0.20;;;0.20;;
24743;SDS011;12844;52.110;5.548;2024-03-02T06:43:23;0.35;;;0.20;;
24743;SDS011;12844;52.110;5.548;2024-03-02T06:45:51;0.28;;;0.20;;
24743;SDS011;12844;52.110;5.548;2024-03-02T06:48:17;0.38;;;0.20;;
24743;SDS011;12844;52.110;5.548;2024-03-02T06:50:48;0.55;;;0.28;;
24743;SDS011;12844;52.110;5.548;2024-03-02T06:53:15;0.68;;;0.20;;
24743;SDS011;12844;52.110;5.548;2024-03-02T06:55:45;0.30;;;0.20;;
24743;SDS011;12844;52.110;5.548;2024-03-02T06:58:14;0.40;;;0.20;;
24743;SDS011;12844;52.110;5.548;2024-03-02T07:00:41;0.30;;;0.20;;
24743;SDS011;12844;52.110;5.548;2024-03-02T07:03:07;0.65;;;0.25;;
24743;SDS011;12844;52.110;5.548;2024-03-02T07:05:32;0.13;;;0.13;;
24743;SDS011;12844;52.110;5.548;2024-03-02T07:07:58;0.50;;;0.20;;
24743;SDS011;12844;52.110;5.548;2024-03-02T07:10:24;0.40;;;0.30;;
24743;SDS011;12844;52.110;5.548;2024-03-02T07:12:50;0.57;;;0.28;;
24743;SDS011;12844;52.110;5.548;2024-03-02T07:15:15;0.43;;;0.10;;
24743;SDS011;12844;52.110;5.548;2024-03-02T07:18:08;0.30;;;0.22;;
24743;SDS011;12844;52.110;5.548;2024-03-02T07:20:33;0.63;;;0.30;;
24743;SDS011;12844;52.110;5.548;2024-03-02T07:22:59;0.38;;;0.28;;
24743;SDS011;12844;52.110;5.548;2024-03-02T07:25:24;1.08;;;0.30;;
24743;SDS011;12844;52.110;5.548;2024-03-02T07:27:50;0.30;;;0.20;;
24743;SDS011;12844;52.110;5.548;2024-03-02T07:30:16;0.75;;;0.28;;
24743;SDS011;12844;52.110;5.548;2024-03-02T07:32:41;0.40;;;0.20;;
24743;SDS011;12844;52.110;5.548;2024-03-02T07:35:10;0.57;;;0.32;;
24743;SDS011;12844;52.110;5.548;2024-03-02T07:37:37;2.03;;;0.30;;
24743;SDS011;12844;52.110;5.548;2024-03-02T07:40:03;0.55;;;0.20;;
24743;SDS011;12844;52.110;5.548;2024-03-02T07:42:28;0.77;;;0.20;;
24743;SDS011;12844;52.110;5.548;2024-03-02T07:44:54;0.60;;;0.30;;
24743;SDS011;12844;52.110;5.548;2024-03-02T07:47:22;1.08;;;0.17;;
24743;SDS011;12844;52.110;5.548;2024-03-02T10:19:59;2.38;;;0.60;;
24743;SDS011;12844;52.110;5.548;2024-03-02T10:22:44;2.53;;;0.60;;
24743;SDS011;12844;52.110;5.548;2024-03-02T10:25:17;2.35;;;0.68;;
24743;SDS011;12844;52.110;5.548;2024-03-02T10:27:56;3.53;;;0.95;;
24743;SDS011;12844;52.110;5.548;2024-03-02T10:30:22;3.00;;;1.10;;
24743;SDS011;12844;52.110;5.548;2024-03-02T10:32:49;3.40;;;0.60;;
24743;SDS011;12844;52.110;5.548;2024-03-02T10:35:15;2.08;;;0.60;;
24743;SDS011;12844;52.110;5.548;2024-03-02T10:37:41;1.38;;;0.75;;
24743;SDS011;12844;52.110;5.548;2024-03-02T10:40:07;2.75;;;0.77;;
24743;SDS011;12844;52.110;5.548;2024-03-02T10:42:37;7.43;;;0.82;;
24743;SDS011;12844;52.110;5.548;2024-03-02T10:45:04;7.68;;;0.80;;
24743;SDS011;12844;52.110;5.548;2024-03-02T10:47:31;2.17;;;0.93;;
24743;SDS011;12844;52.110;5.548;2024-03-02T10:49:59;4.38;;;0.80;;
24743;SDS011;12844;52.110;5.548;2024-03-02T10:52:26;4.10;;;1.13;;
24743;SDS011;12844;52.110;5.548;2024-03-02T10:54:52;5.53;;;1.15;;
24743;SDS011;12844;52.110;5.548;2024-03-02T10:57:17;4.03;;;0.73;;
24743;SDS011;12844;52.110;5.548;2024-03-02T10:59:53;2.80;;;0.75;;
24743;SDS011;12844;52.110;5.548;2024-03-02T11:02:22;4.30;;;0.93;;
24743;SDS011;12844;52.110;5.548;2024-03-02T11:04:50;4.25;;;0.80;;
24743;SDS011;12844;52.110;5.548;2024-03-02T11:07:20;3.10;;;0.80;;
24743;SDS011;12844;52.110;5.548;2024-03-02T11:09:54;2.60;;;0.63;;
24743;SDS011;12844;52.110;5.548;2024-03-02T11:12:28;3.28;;;0.85;;
24743;SDS011;12844;52.110;5.548;2024-03-02T11:14:56;1.63;;;0.80;;
24743;SDS011;12844;52.110;5.548;2024-03-02T11:17:24;4.10;;;0.80;;
24743;SDS011;12844;52.110;5.548;2024-03-02T11:19:51;4.30;;;0.88;;
24743;SDS011;12844;52.110;5.548;2024-03-02T11:22:17;2.92;;;0.82;;
24743;SDS011;12844;52.110;5.548;2024-03-02T11:24:47;3.13;;;0.80;;
24743;SDS011;12844;52.110;5.548;2024-03-02T11:27:14;1.73;;;0.60;;
24743;SDS011;12844;52.110;5.548;2024-03-02T11:34:41;4.60;;;0.70;;
24743;SDS011;12844;52.110;5.548;2024-03-02T11:37:11;2.50;;;0.70;;
24743;SDS011;12844;52.110;5.548;2024-03-02T11:39:38;3.30;;;1.00;;
24743;SDS011;12844;52.110;5.548;2024-03-02T11:42:07;2.88;;;0.63;;
24743;SDS011;12844;52.110;5.548;2024-03-02T11:44:37;1.58;;;0.55;;
24743;SDS011;12844;52.110;5.548;2024-03-02T11:47:07;3.75;;;0.80;;
24743;SDS011;12844;52.110;5.548;2024-03-02T11:49:40;2.45;;;0.80;;
24743;SDS011;12844;52.110;5.548;2024-03-02T11:52:10;2.30;;;0.70;;
24743;SDS011;12844;52.110;5.548;2024-03-02T11:54:38;1.77;;;0.77;;
24743;SDS011;12844;52.110;5.548;2024-03-02T11:57:08;1.92;;;0.80;;
24743;SDS011;12844;52.110;5.548;2024-03-02T11:59:34;2.13;;;0.80;;
24743;SDS011;12844;52.110;5.548;2024-03-02T12:02:00;2.42;;;0.80;;
24743;SDS011;12844;52.110;5.548;2024-03-02T12:04:27;5.43;;;0.93;;
24743;SDS011;12844;52.110;5.548;2024-03-02T12:06:55;1.98;;;0.70;;
24743;SDS011;12844;52.110;5.548;2024-03-02T12:09:24;1.25;;;0.77;;
24743;SDS011;12844;52.110;5.548;2024-03-02T12:12:06;1.80;;;0.65;;
24743;SDS011;12844;52.110;5.548;2024-03-02T12:14:35;1.63;;;0.80;;
24743;SDS011;12844;52.110;5.548;2024-03-02T12:17:02;3.30;;;0.77;;
24743;SDS011;12844;52.110;5.548;2024-03-02T12:19:29;1.67;;;0.60;;
24743;SDS011;12844;52.110;5.548;2024-03-02T12:21:58;2.25;;;0.60;;
24743;SDS011;12844;52.110;5.548;2024-03-02T12:24:26;1.15;;;0.63;;
24743;SDS011;12844;52.110;5.548;2024-03-02T12:26:52;2.38;;;0.70;;
24743;SDS011;12844;52.110;5.548;2024-03-02T12:29:19;1.50;;;0.57;;
24743;SDS011;12844;52.110;5.548;2024-03-02T12:31:47;1.45;;;0.70;;
24743;SDS011;12844;52.110;5.548;2024-03-02T12:34:14;1.08;;;0.68;;
24743;SDS011;12844;52.110;5.548;2024-03-02T12:36:41;1.95;;;0.65;;
24743;SDS011;12844;52.110;5.548;2024-03-02T12:39:07;1.33;;;0.63;;
24743;SDS011;12844;52.110;5.548;2024-03-02T12:41:38;1.55;;;0.90;;
24743;SDS011;12844;52.110;5.548;2024-03-02T12:44:04;3.42;;;1.10;;
24743;SDS011;12844;52.110;5.548;2024-03-02T12:46:34;2.28;;;1.10;;
24743;SDS011;12844;52.110;5.548;2024-03-02T12:49:08;2.25;;;0.93;;
24743;SDS011;12844;52.110;5.548;2024-03-02T12:51:35;2.25;;;0.90;;
24743;SDS011;12844;52.110;5.548;2024-03-02T12:54:02;2.35;;;1.02;;
24743;SDS011;12844;52.110;5.548;2024-03-02T12:56:30;1.63;;;0.77;;
24743;SDS011;12844;52.110;5.548;2024-03-02T12:58:56;1.17;;;0.80;;
24743;SDS011;12844;52.110;5.548;2024-03-02T13:01:22;1.40;;;0.70;;
24743;SDS011;12844;52.110;5.548;2024-03-02T13:03:50;2.50;;;0.75;;
24743;SDS011;12844;52.110;5.548;2024-03-02T13:06:17;2.58;;;1.00;;
24743;SDS011;12844;52.110;5.548;2024-03-02T13:08:45;2.15;;;0.82;;
24743;SDS011;12844;52.110;5.548;2024-03-02T13:11:11;1.90;;;0.80;;
24743;SDS011;12844;52.110;5.548;2024-03-02T13:13:38;1.92;;;0.70;;
24743;SDS011;12844;52.110;5.548;2024-03-02T13:16:07;1.20;;;0.70;;
24743;SDS011;12844;52.110;5.548;2024-03-02T13:18:40;2.28;;;0.90;;
24743;SDS011;12844;52.110;5.548;2024-03-02T13:21:07;1.30;;;0.75;;
24743;SDS011;12844;52.110;5.548;2024-03-02T13:23:33;1.30;;;0.60;;
24743;SDS011;12844;52.110;5.548;2024-03-02T13:25:59;2.00;;;0.80;;
24743;SDS011;12844;52.110;5.548;2024-03-02T13:28:25;2.60;;;0.63;;
24743;SDS011;12844;52.110;5.548;2024-03-02T13:30:51;1.80;;;0.80;;
24743;SDS011;12844;52.110;5.548;2024-03-02T13:33:17;2.15;;;0.80;;
24743;SDS011;12844;52.110;5.548;2024-03-02T13:35:48;1.33;;;0.70;;
24743;SDS011;12844;52.110;5.548;2024-03-02T13:38:15;0.95;;;0.60;;
24743;SDS011;12844;52.110;5.548;2024-03-02T13:40:44;2.55;;;1.00;;
24743;SDS011;12844;52.110;5.548;2024-03-02T13:43:10;2.97;;;0.90;;
24743;SDS011;12844;52.110;5.548;2024-03-02T13:45:37;2.88;;;0.73;;
24743;SDS011;12844;52.110;5.548;2024-03-02T13:48:06;1.52;;;0.70;;
24743;SDS011;12844;52.110;5.548;2024-03-02T13:50:32;1.40;;;0.80;;
24743;SDS011;12844;52.110;5.548;2024-03-02T13:52:57;1.33;;;0.60;;
24743;SDS011;12844;52.110;5.548;2024-03-02T13:55:23;1.70;;;0.90;;
24743;SDS011;12844;52.110;5.548;2024-03-02T13:57:48;4.25;;;0.85;;
24743;SDS011;12844;52.110;5.548;2024-03-02T14:00:15;0.88;;;0.57;;
24743;SDS011;12844;52.110;5.548;2024-03-02T14:02:42;1.88;;;0.70;;
24743;SDS011;12844;52.110;5.548;2024-03-02T14:05:08;1.50;;;0.80;;
24743;SDS011;12844;52.110;5.548;2024-03-02T14:07:40;1.92;;;0.70;;
24743;SDS011;12844;52.110;5.548;2024-03-02T14:10:06;1.00;;;0.80;;
24743;SDS011;12844;52.110;5.548;2024-03-02T14:12:32;1.65;;;0.82;;
24743;SDS011;12844;52.110;5.548;2024-03-02T14:14:58;2.08;;;0.60;;
24743;SDS011;12844;52.110;5.548;2024-03-02T14:17:25;1.17;;;0.55;;
24743;SDS011;12844;52.110;5.548;2024-03-02T14:19:51;1.92;;;0.70;;
24743;SDS011;12844;52.110;5.548;2024-03-02T14:22:18;1.30;;;0.70;;
24743;SDS011;12844;52.110;5.548;2024-03-02T14:24:44;1.42;;;0.70;;
24743;SDS011;12844;52.110;5.548;2024-03-02T14:27:10;0.80;;;0.60;;
24743;SDS011;12844;52.110;5.548;2024-03-02T14:29:36;1.10;;;0.65;;
24743;SDS011;12844;52.110;5.548;2024-03-02T14:32:03;1.25;;;0.63;;
24743;SDS011;12844;52.110;5.548;2024-03-02T14:34:29;1.88;;;0.70;;
24743;SDS011;12844;52.110;5.548;2024-03-02T14:36:54;1.77;;;0.90;;
24743;SDS011;12844;52.110;5.548;2024-03-02T14:39:20;1.25;;;0.60;;
24743;SDS011;12844;52.110;5.548;2024-03-02T14:41:46;1.10;;;0.73;;
24743;SDS011;12844;52.110;5.548;2024-03-02T14:44:12;1.10;;;0.68;;
24743;SDS011;12844;52.110;5.548;2024-03-02T14:46:37;1.48;;;0.60;;
24743;SDS011;12844;52.110;5.548;2024-03-02T14:49:03;1.25;;;0.70;;
24743;SDS011;12844;52.110;5.548;2024-03-02T14:51:29;1.45;;;0.70;;
24743;SDS011;12844;52.110;5.548;2024-03-02T14:53:55;2.17;;;0.70;;
24743;SDS011;12844;52.110;5.548;2024-03-02T14:56:21;2.00;;;0.70;;
24743;SDS011;12844;52.110;5.548;2024-03-02T14:58:46;1.08;;;0.70;;
24743;SDS011;12844;52.110;5.548;2024-03-02T15:01:12;1.25;;;0.70;;
24743;SDS011;12844;52.110;5.548;2024-03-02T15:03:38;1.73;;;0.60;;
24743;SDS011;12844;52.110;5.548;2024-03-02T15:06:04;2.65;;;0.90;;
24743;SDS011;12844;52.110;5.548;2024-03-02T15:08:30;1.08;;;0.55;;
24743;SDS011;12844;52.110;5.548;2024-03-02T15:10:55;1.35;;;0.77;;
24743;SDS011;12844;52.110;5.548;2024-03-02T15:13:23;1.75;;;0.77;;
24743;SDS011;12844;52.110;5.548;2024-03-02T15:15:49;1.20;;;0.60;;
24743;SDS011;12844;52.110;5.548;2024-03-02T15:18:15;1.80;;;0.80;;
24743;SDS011;12844;52.110;5.548;2024-03-02T15:20:41;1.17;;;0.52;;
24743;SDS011;12844;52.110;5.548;2024-03-02T15:23:07;2.10;;;0.60;;
24743;SDS011;12844;52.110;5.548;2024-03-02T15:25:32;2.22;;;0.70;;
24743;SDS011;12844;52.110;5.548;2024-03-02T15:27:58;1.63;;;0.50;;
24743;SDS011;12844;52.110;5.548;2024-03-02T15:30:23;2.17;;;0.75;;
24743;SDS011;12844;52.110;5.548;2024-03-02T15:32:49;1.20;;;0.52;;
24743;SDS011;12844;52.110;5.548;2024-03-02T15:35:15;3.17;;;0.77;;
24743;SDS011;12844;52.110;5.548;2024-03-02T15:37:40;0.95;;;0.60;;
24743;SDS011;12844;52.110;5.548;2024-03-02T15:40:06;1.73;;;0.70;;
24743;SDS011;12844;52.110;5.548;2024-03-02T15:42:33;1.70;;;0.68;;
24743;SDS011;12844;52.110;5.548;2024-03-02T15:44:59;0.98;;;0.50;;
24743;SDS011;12844;52.110;5.548;2024-03-02T15:47:25;1.85;;;0.80;;
24743;SDS011;12844;52.110;5.548;2024-03-02T15:49:51;1.23;;;0.63;;
24743;SDS011;12844;52.110;5.548;2024-03-02T15:52:16;1.30;;;0.63;;
24743;SDS011;12844;52.110;5.548;2024-03-02T15:54:46;1.00;;;0.55;;
24743;SDS011;12844;52.110;5.548;2024-03-02T15:57:12;1.55;;;0.68;;
24743;SDS011;12844;52.110;5.548;2024-03-02T15:59:38;1.02;;;0.55;;
24743;SDS011;12844;52.110;5.548;2024-03-02T16:02:04;1.13;;;0.80;;
24743;SDS011;12844;52.110;5.548;2024-03-02T16:04:30;1.02;;;0.60;;
24743;SDS011;12844;52.110;5.548;2024-03-02T16:06:55;0.95;;;0.60;;
24743;SDS011;12844;52.110;5.548;2024-03-02T16:09:21;1.23;;;0.60;;
24743;SDS011;12844;52.110;5.548;2024-03-02T16:11:47;1.00;;;0.60;;
24743;SDS011;12844;52.110;5.548;2024-03-02T16:14:15;0.75;;;0.50;;
24743;SDS011;12844;52.110;5.548;2024-03-02T16:16:42;2.20;;;0.63;;
24743;SDS011;12844;52.110;5.548;2024-03-02T16:19:08;0.85;;;0.50;;
24743;SDS011;12844;52.110;5.548;2024-03-02T16:21:33;1.27;;;0.60;;
24743;SDS011;12844;52.110;5.548;2024-03-02T16:23:59;0.88;;;0.60;;
24743;SDS011;12844;52.110;5.548;2024-03-02T16:26:25;0.90;;;0.55;;
24743;SDS011;12844;52.110;5.548;2024-03-02T16:28:50;0.80;;;0.55;;
24743;SDS011;12844;52.110;5.548;2024-03-02T16:31:16;1.40;;;0.70;;
24743;SDS011;12844;52.110;5.548;2024-03-02T16:33:43;0.75;;;0.60;;
24743;SDS011;12844;52.110;5.548;2024-03-02T16:36:09;1.10;;;0.50;;
24743;SDS011;12844;52.110;5.548;2024-03-02T16:38:34;1.45;;;0.85;;
24743;SDS011;12844;52.110;5.548;2024-03-02T16:41:00;0.75;;;0.50;;
24743;SDS011;12844;52.110;5.548;2024-03-02T16:43:25;1.17;;;0.55;;
24743;SDS011;12844;52.110;5.548;2024-03-02T16:45:51;1.08;;;0.40;;
24743;SDS011;12844;52.110;5.548;2024-03-02T16:48:17;0.60;;;0.60;;
24743;SDS011;12844;52.110;5.548;2024-03-02T16:50:43;1.48;;;0.60;;
24743;SDS011;12844;52.110;5.548;2024-03-02T16:53:08;1.20;;;0.70;;
24743;SDS011;12844;52.110;5.548;2024-03-02T16:55:34;0.95;;;0.60;;
24743;SDS011;12844;52.110;5.548;2024-03-02T16:57:59;1.15;;;0.60;;
24743;SDS011;12844;52.110;5.548;2024-03-02T17:00:25;2.25;;;0.60;;
24743;SDS011;12844;52.110;5.548;2024-03-02T17:02:51;1.20;;;0.63;;
24743;SDS011;12844;52.110;5.548;2024-03-02T17:05:17;1.23;;;0.80;;
24743;SDS011;12844;52.110;5.548;2024-03-02T17:07:46;0.65;;;0.60;;
24743;SDS011;12844;52.110;5.548;2024-03-02T17:10:15;1.30;;;0.55;;
24743;SDS011;12844;52.110;5.548;2024-03-02T17:12:40;1.10;;;0.60;;
24743;SDS011;12844;52.110;5.548;2024-03-02T17:15:06;0.80;;;0.70;;
24743;SDS011;12844;52.110;5.548;2024-03-02T17:17:32;0.80;;;0.60;;
24743;SDS011;12844;52.110;5.548;2024-03-02T17:19:58;1.10;;;0.68;;
24743;SDS011;12844;52.110;5.548;2024-03-02T17:22:26;1.10;;;0.60;;
24743;SDS011;12844;52.110;5.548;2024-03-02T17:24:52;1.25;;;0.50;;
24743;SDS011;12844;52.110;5.548;2024-03-02T17:27:18;1.15;;;0.60;;
24743;SDS011;12844;52.110;5.548;2024-03-02T17:29:44;0.80;;;0.50;;
24743;SDS011;12844;52.110;5.548;2024-03-02T17:32:10;1.00;;;0.60;;
24743;SDS011;12844;52.110;5.548;2024-03-02T17:34:35;1.25;;;0.63;;
24743;SDS011;12844;52.110;5.548;2024-03-02T17:37:01;1.27;;;0.60;;
24743;SDS011;12844;52.110;5.548;2024-03-02T17:39:27;1.30;;;0.60;;
24743;SDS011;12844;52.110;5.548;2024-03-02T17:41:52;1.63;;;0.80;;
24743;SDS011;12844;52.110;5.548;2024-03-02T17:44:18;0.82;;;0.50;;
24743;SDS011;12844;52.110;5.548;2024-03-02T17:46:44;1.00;;;0.55;;
24743;SDS011;12844;52.110;5.548;2024-03-02T17:49:10;0.85;;;0.55;;
24743;SDS011;12844;52.110;5.548;2024-03-02T17:51:36;1.63;;;0.60;;
24743;SDS011;12844;52.110;5.548;2024-03-02T17:54:01;0.88;;;0.70;;
24743;SDS011;12844;52.110;5.548;2024-03-02T17:56:27;0.88;;;0.70;;
24743;SDS011;12844;52.110;5.548;2024-03-02T17:58:52;0.85;;;0.55;;
24743;SDS011;12844;52.110;5.548;2024-03-02T18:01:18;1.00;;;0.60;;
24743;SDS011;12844;52.110;5.548;2024-03-02T18:03:44;0.90;;;0.50;;
24743;SDS011;12844;52.110;5.548;2024-03-02T18:06:09;1.67;;;0.75;;
24743;SDS011;12844;52.110;5.548;2024-03-02T18:08:37;1.00;;;0.70;;
24743;SDS011;12844;52.110;5.548;2024-03-02T18:11:02;1.33;;;0.80;;
24743;SDS011;12844;52.110;5.548;2024-03-02T18:13:28;1.38;;;0.77;;
24743;SDS011;12844;52.110;5.548;2024-03-02T18:15:54;1.02;;;0.63;;
24743;SDS011;12844;52.110;5.548;2024-03-02T18:18:20;0.70;;;0.50;;
24743;SDS011;12844;52.110;5.548;2024-03-02T18:20:46;0.98;;;0.70;;
24743;SDS011;12844;52.110;5.548;2024-03-02T18:23:13;1.40;;;0.80;;
24743;SDS011;12844;52.110;5.548;2024-03-02T18:25:39;1.73;;;0.80;;
24743;SDS011;12844;52.110;5.548;2024-03-02T18:28:11;1.38;;;0.77;;
24743;SDS011;12844;52.110;5.548;2024-03-02T18:30:37;1.30;;;0.60;;
24743;SDS011;12844;52.110;5.548;2024-03-02T18:33:02;0.93;;;0.60;;
24743;SDS011;12844;52.110;5.548;2024-03-02T18:35:29;0.90;;;0.63;;
24743;SDS011;12844;52.110;5.548;2024-03-02T18:37:54;1.30;;;0.60;;
24743;SDS011;12844;52.110;5.548;2024-03-02T18:40:20;0.82;;;0.70;;
24743;SDS011;12844;52.110;5.548;2024-03-02T18:42:46;1.15;;;0.77;;
24743;SDS011;12844;52.110;5.548;2024-03-02T18:45:11;1.65;;;0.80;;
24743;SDS011;12844;52.110;5.548;2024-03-02T18:47:37;1.50;;;0.88;;
24743;SDS011;12844;52.110;5.548;2024-03-02T18:50:07;0.98;;;0.70;;
24743;SDS011;12844;52.110;5.548;2024-03-02T18:52:36;0.80;;;0.60;;